Flight Track Log - Related Links

Times and Time Zones

All times are in EDT time to prevent confusion due to time zone crossing. See the UPS1321 flight status page for this flight to view local times or setup timezone preferences in your user account.

Time Position Orientation Groundspeed Altitude Reporting Facility
EDT Latitude Longitude Course Direction KTS MPH feet Rate Location/Type
Mon 10:09:54 PM 30.5069 -81.6725 334° Northwest 179 206 800  Level Jacksonville Center
Mon 10:10:24 PM 30.5153 -81.6458 60° Northeast 190 219 2,200 2,400 Climbing Jacksonville Center
Mon 10:11:09 PM 30.5422 -81.6383 13° North 200 230 3,800 2,262 Climbing Jacksonville Center
Mon 10:11:25 PM 30.5675 -81.6525 334° Northwest 247 284 4,500 2,700 Climbing Jacksonville Center
Mon 10:12:09 PM 30.6031 -81.6833 323° Northwest 268 308 6,500 3,404 Climbing Jacksonville Center
Mon 10:13:09 PM 30.6642 -81.7358 324° Northwest 268 308 10,400 2,900 Climbing Jacksonville Center
Mon 10:14:00 PM 30.7607 -81.8411 335° Northwest  Level FlightAware Approximate
Mon 10:14:09 PM 30.7419 -81.7975 326° Northwest 295 339 12,300  Level Jacksonville Center
Mon 10:15:00 PM 30.8555 -81.8938 334° Northwest  Level FlightAware Approximate
Mon 10:15:09 PM 30.8303 -81.8692 325° Northwest 346 398 15,400  Level Jacksonville Center
Mon 10:16:09 PM 30.9247 -81.9408 327° Northwest 383 441 18,200 2,650 Climbing Jacksonville Center
Mon 10:17:09 PM 31.0297 -81.9981 335° Northwest 401 461 20,700 2,250 Climbing Jacksonville Center
Mon 10:18:09 PM 31.1447 -82.0503 339° North 420 483 22,700 2,150 Climbing Jacksonville Center
Mon 10:19:09 PM 31.2622 -82.1075 337° Northwest 443 510 25,000 2,200 Climbing Jacksonville Center
Mon 10:20:09 PM 31.3836 -82.1650 338° Northwest 454 522 27,100 2,200 Climbing Jacksonville Center
Mon 10:21:09 PM 31.5050 -82.2250 337° Northwest 460 529 29,400 2,024 Climbing Jacksonville Center
Mon 10:22:58 PM 31.7242 -82.3272 338° Northwest 474 545 32,800 1,704 Climbing Atlanta Center
Mon 10:23:58 PM 31.8422 -82.3961 334° Northwest 469 540 34,200 1,100 Climbing Atlanta Center
Mon 10:24:58 PM 31.9558 -82.4650 333° Northwest 462 532 35,000 400 Climbing Atlanta Center
Mon 10:25:58 PM 32.0714 -82.5339 333° Northwest 467 537 35,000  Level Atlanta Center
Mon 10:26:58 PM 32.1786 -82.5983 333° Northwest 472 543 35,000  Level Atlanta Center
Mon 10:27:58 PM 32.3194 -82.6822 333° Northwest 478 550 35,000 500 Level Atlanta Center
Mon 10:28:58 PM 32.4350 -82.7542 332° Northwest 473 544 36,000 500 Climbing Atlanta Center
Mon 10:29:58 PM 32.5506 -82.8214 334° Northwest 473 544 36,000  Level Atlanta Center
Mon 10:30:58 PM 32.6781 -82.8617 345° North 463 533 36,000  Level Atlanta Center
Mon 10:31:58 PM 32.8078 -82.8872 351° North 462 532 36,000  Level Atlanta Center
Mon 10:32:58 PM 32.9375 -82.9128 351° North 468 539 36,000  Level Atlanta Center
Mon 10:33:58 PM 33.0419 -82.9361 349° North 474 545 36,000  Level Atlanta Center
Mon 10:34:58 PM 33.1883 -82.9664 350° North 474 545 36,000  Level Atlanta Center
Mon 10:35:58 PM 33.3161 -82.9947 350° North 469 540 36,000  Level Atlanta Center
Mon 10:36:58 PM 33.4456 -83.0206 351° North 463 533 36,000  Level Atlanta Center
Mon 10:37:58 PM 33.5711 -83.0489 349° North 463 533 36,000  Level Atlanta Center
Mon 10:38:58 PM 33.6986 -83.0775 349° North 463 533 36,000  Level Atlanta Center
Mon 10:39:58 PM 33.8283 -83.1061 350° North 463 533 36,000  Level Atlanta Center
Mon 10:40:58 PM 33.9578 -83.1322 351° North 471 542 36,000  Level Atlanta Center
Mon 10:41:58 PM 34.0894 -83.1633 349° North 471 542 36,000  Level Atlanta Center
Mon 10:42:58 PM 34.2233 -83.1922 350° North 471 542 36,000  Level Atlanta Center
Mon 10:43:58 PM 34.3508 -83.2211 349° North 471 542 36,000  Level Atlanta Center
Mon 10:44:58 PM 34.4950 -83.2500 351° North 471 542 36,000  Level Atlanta Center
Mon 10:45:58 PM 34.6289 -83.2689 353° North 471 542 36,000  Level Atlanta Center
Mon 10:46:58 PM 34.7542 -83.2981 349° North 465 535 36,000  Level Atlanta Center
Mon 10:47:58 PM 34.8775 -83.3172 353° North 471 542 36,000  Level Atlanta Center
Mon 10:48:58 PM 35.0069 -83.3314 355° North 477 549 36,000 -100 Level Atlanta Center
Mon 10:49:58 PM 35.1406 -83.3506 353° North 477 549 35,800 -500 Descending Atlanta Center
Mon 10:50:58 PM 35.2867 -83.3722 353° North 482 555 35,000 -400 Descending Atlanta Center
Mon 10:51:58 PM 35.4203 -83.3889 354° North 482 555 35,000  Level Atlanta Center
Mon 10:52:58 PM 35.5519 -83.4108 352° North 482 555 35,000  Level Atlanta Center
Mon 10:53:58 PM 35.6814 -83.4250 355° North 482 555 35,000  Level Atlanta Center
Mon 10:54:58 PM 35.8086 -83.4447 353° North 475 547 35,000  Level Atlanta Center
Mon 10:55:58 PM 35.9400 -83.4617 354° North 470 541 35,000 -250 Level Atlanta Center
Mon 10:56:58 PM 36.0489 -83.5303 333° Northwest 446 513 34,500 -812 Descending Atlanta Center
Mon 10:58:11 PM 36.1717 -83.6358 325° Northwest 448 516 33,200 -1,030 Descending Indianapolis Center
Mon 10:59:12 PM 36.2756 -83.7256 325° Northwest 453 521 32,200 -1,033 Descending Indianapolis Center
Mon 11:00:13 PM 36.3742 -83.8258 321° Northwest 463 533 31,100 -327 Descending Indianapolis Center
Mon 11:05:56 PM 36.9019 -84.4878 316° Northwest 458 527 30,000 -178 Descending FlightAware ADS-B
Mon 11:06:57 PM 36.9959 -84.5997 321° Northwest 465 535 29,900 -1,140 Descending FlightAware ADS-B
Mon 11:07:57 PM 37.0882 -84.7012 319° Northwest 449 517 27,700 -2,773 Descending FlightAware ADS-B
Mon 11:08:56 PM 37.1802 -84.7979 321° Northwest 424 488 24,400 -3,200 Descending FlightAware ADS-B
Mon 11:09:57 PM 37.2708 -84.8945 319° Northwest 396 456 21,300 -3,100 Descending FlightAware ADS-B
Mon 11:10:56 PM 37.3508 -84.9815 318° Northwest 373 429 18,200 -3,076 Descending FlightAware ADS-B
Mon 11:11:56 PM 37.4339 -85.0435 358° North 375 432 15,200 -2,479 Descending FlightAware ADS-B
Mon 11:12:57 PM 37.5391 -85.0049 20° North 378 435 13,200 -1,632 Descending FlightAware ADS-B
Mon 11:13:50 PM 37.5969 -84.9782 14° North 367 422 12,100 -1,050 Descending FlightAware ADS-B
Mon 11:14:57 PM 37.7098 -85.0283 312° West 300 345 11,100 -1,000 Descending FlightAware ADS-B
Mon 11:15:56 PM 37.7603 -85.1077 288° West 292 336 10,000 -1,008 Descending FlightAware ADS-B
Mon 11:16:56 PM 37.7693 -85.2024 275° West 268 308 9,100 -1,240 Descending FlightAware ADS-B
Mon 11:17:57 PM 37.7764 -85.2932 274° West 264 304 7,500 -1,475 Descending FlightAware ADS-B
Mon 11:18:58 PM 37.7720 -85.3894 265° West 264 304 6,100 -1,190 Descending FlightAware ADS-B
Mon 11:19:58 PM 37.7892 -85.4779 297° West 261 300 5,100 -756 Descending FlightAware ADS-B
Mon 11:20:57 PM 37.8208 -85.5569 297° West 254 292 4,600 -958 Descending FlightAware ADS-B
Mon 11:21:57 PM 37.8616 -85.6288 317° Northwest 253 291 3,200 -1,021 Descending FlightAware ADS-B
Mon 11:22:31 PM 37.8950 -85.6529 345° North 255 293 3,000 -197 Descending FlightAware ADS-B
Mon 11:22:58 PM 37.9258 -85.6631 346° North 255 293 3,000  Level FlightAware ADS-B
Mon 11:23:59 PM 37.9884 -85.6833 345° North 213 245 3,000 -151 Level FlightAware ADS-B
Mon 11:24:57 PM 38.0377 -85.6998 346° North 159 183 2,700 -450 Descending FlightAware ADS-B
Mon 11:25:59 PM 38.0769 -85.7125 346° North 136 157 2,100 -684 Descending FlightAware ADS-B
Mon 11:26:51 PM 38.1072 -85.7226 346° North 138 159 1,400 -729 Descending FlightAware ADS-B
Mon 11:27:46 PM 38.1500 -85.7333 346° North 135 155 800 -655 Descending Louisville TRACON
Mon 11:29:00 PM 38.1741 -85.7365 211° Southwest  Level Estimated
Mon 11:36:00 PM 38.1741 -85.7365 208° Southwest  Level Estimated

Login

Don't have an account? Register now (free) for customized features, flight alerts, and more!